• Join FlightAware (Why Join?)
  • Login
  • US Flag 
10:57AM EST


 

Airport Tracker/Info


-or-


 

Live Flight TrackerFlight Track Log ✈ KAP550 ✈ 13-May-2013 ✈ KMSS - KALB

Flight Track Log - Related Links

Times and Time Zones

All times are in EDT time to prevent confusion due to time zone crossing. See the KAP550 flight status page for this flight to view local times or setup timezone preferences in your user account.

Time Position Orientation Groundspeed Altitude Reporting Facility
EDT Latitude Longitude Course Direction KTS MPH feet Rate Location/Type
05:16PM 44.7339 -74.7633 160° South 150 173 5,900  Level Boston Center
05:17PM 44.6967 -74.7383 154° Southeast 150 173 6,600 750 Climbing Boston Center
05:18PM 44.6575 -74.7222 164° South 150 173 7,400 750 Climbing Boston Center
05:19PM 44.6183 -74.7033 161° South 145 167 8,100 750 Climbing Boston Center
05:20PM 44.5792 -74.6814 158° South 145 167 8,900 800 Climbing Boston Center
05:21PM 44.7124 -74.7312 160° South  Level FlightAware Approximate
05:21PM 44.5419 -74.6625 160° South 145 167 9,700  Level Boston Center
05:22PM 44.4986 -74.6433 162° South 145 167 10,400 700 Climbing Boston Center
05:23PM 44.4531 -74.6214 161° South 151 174 11,100 350 Climbing Boston Center
05:24PM 44.4078 -74.5992 161° South 163 188 11,100 50 Level Boston Center
05:25PM 44.3561 -74.5742 161° South 184 212 11,200  Climbing Boston Center
05:26PM 44.3025 -74.5461 159° South 189 217 11,100  Descending Boston Center
05:27PM 44.2508 -74.5181 159° South 194 223 11,200 50 Climbing Boston Center
05:28PM 44.2011 -74.4992 165° South 199 229 11,200 -100 Level Boston Center
05:29PM 44.1497 -74.4711 159° South 199 229 11,000 -50 Descending Boston Center
05:30PM 44.1000 -74.4494 163° South 194 223 11,100  Climbing Boston Center
05:31PM 44.0461 -74.4244 162° South 194 223 11,000 -50 Descending Boston Center
05:32PM 43.9967 -74.3969 158° South 194 223 11,000  Level Boston Center
05:33PM 43.9469 -74.3750 162° South 194 223 11,000 50 Level Boston Center
05:34PM 43.8975 -74.3475 158° South 194 223 11,100 100 Climbing Boston Center
05:35PM 43.8458 -74.3228 161° South 189 217 11,200  Climbing Boston Center
05:36PM 43.7961 -74.3011 163° South 189 217 11,100 -50 Descending Boston Center
05:37PM 43.7467 -74.2767 160° South 189 217 11,100 -250 Level Boston Center
05:38PM 43.6928 -74.2519 162° South 189 217 10,600 -450 Descending Boston Center
05:39PM 43.6369 -74.2244 160° South 200 230 10,200 -400 Descending Boston Center
05:40PM 43.5789 -74.1969 161° South 213 245 9,800 -350 Descending Boston Center
05:41PM 43.5253 -74.1725 162° South 213 245 9,500 -300 Descending Boston Center
05:42PM 43.4714 -74.1481 162° South 213 245 9,200 -211 Descending Boston Center
05:43PM 43.4217 -74.1239 161° South 204 235 9,100 -82 Descending Boston Center
05:43PM 43.4050 -74.1175 164° South 199 229 9,100 -91 Level Boston Center
05:44PM 43.3678 -74.0967 158° South 200 230 9,000 -56 Descending Boston Center
05:45PM 43.3244 -74.0725 158° South 195 224 9,000 50 Level Boston Center
05:46PM 43.2664 -74.0453 161° South 195 224 9,100 80 Climbing Boston Center
05:46PM 43.2583 -74.0422 165° South 188 216 9,100 -100 Level Boston Center
05:47PM 43.2231 -74.0242 160° South 190 219 9,000 -100 Descending Boston Center
05:47PM 43.2086 -74.0211 171° South 191 220 9,000 -500 Level Boston Center
05:48PM 43.1672 -74.0000 160° South 190 219 8,500 -590 Descending Boston Center
05:48PM 43.1525 -73.9939 163° South 197 227 8,400 -600 Descending Boston Center
05:49PM 43.1236 -73.9792 160° South 190 219 7,900 -787 Descending Boston Center
05:49PM 43.1028 -73.9728 167° South 183 211 7,600 -900 Descending Boston Center
05:50PM 43.0678 -73.9550 160° South 189 217 7,000 -900 Descending Boston Center
05:50PM 43.0531 -73.9489 163° South 188 216 6,700 -800 Descending Boston Center
05:51PM 43.0242 -73.9339 159° South 189 217 6,200 -885 Descending Boston Center
05:51PM 43.0033 -73.9250 163° South 188 216 5,800 -900 Descending Boston Center
05:52PM 42.9703 -73.9069 158° South 184 212 5,300 -806 Descending Boston Center
05:52PM 42.9536 -73.9039 172° South 185 213 4,900 -900 Descending Boston Center
05:53PM 42.9247 -73.8861 156° South 190 219 4,400 -947 Descending Boston Center
05:54PM 42.8731 -73.8622 161° South 185 213 3,400 -825 Descending Boston Center
05:54PM 42.8625 -73.8536 149° Southeast 184 212 3,300 -300 Descending Boston Center
05:55PM 42.8294 -73.8358 158° South 180 207 3,100 -885 Descending Boston Center
05:55PM 42.8278 -73.7961 93° East 188 216 2,400 5,900 Descending Boston Center
05:56PM 42.7839 -73.8150 198° South 180 207 9,000 -700 Climbing Boston Center
05:56PM 42.7803 -73.7753 97° East 153 176 1,700  Descending Boston Center
05:57PM 42.7425 -73.7914 197° South 180 207 9,000 -1,082 Climbing Boston Center
05:57PM 42.7489 -73.7803 52° Northeast 109 125 600 -22,909 Descending Boston Center
05:59PM 42.7333 -73.8000 170° South  Level FlightAware Approximate
06:06PM 42.7491 -73.8020 170° South  Level Estimated
06:07PM 42.7491 -73.8020 170° South  Level Estimated